createdAt,value
2022-10-01T00:01:29.746Z,11.80
2022-10-01T00:03:57.147Z,11.70
2022-10-01T00:06:24.861Z,11.70
2022-10-01T00:08:51.684Z,11.70
2022-10-01T00:11:23.455Z,11.50
2022-10-01T00:13:50.545Z,11.50
2022-10-01T00:16:19.269Z,11.50
2022-10-01T00:18:46.573Z,11.40
2022-10-01T00:21:15.474Z,11.40
2022-10-01T00:23:42.500Z,11.30
2022-10-01T00:26:17.373Z,11.30
2022-10-01T00:28:45.669Z,11.30
2022-10-01T00:31:12.791Z,11.30
2022-10-01T00:33:39.676Z,11.30
2022-10-01T00:36:07.528Z,11.30
2022-10-01T00:38:34.463Z,11.30
2022-10-01T00:41:01.613Z,11.30
2022-10-01T00:43:30.276Z,11.30
2022-10-01T00:46:03.032Z,11.30
2022-10-01T00:48:30.510Z,11.30
2022-10-01T00:50:57.312Z,11.20
2022-10-01T00:53:24.073Z,11.20
2022-10-01T00:55:55.293Z,11.20
2022-10-01T00:58:22.386Z,11.10
2022-10-01T01:00:49.806Z,11.00
2022-10-01T01:03:16.843Z,11.00
2022-10-01T01:05:44.140Z,10.90
2022-10-01T01:08:10.910Z,10.80
2022-10-01T01:15:42.975Z,10.70
2022-10-01T01:19:29.113Z,10.50
2022-10-01T01:22:34.551Z,10.50
2022-10-01T01:25:11.598Z,10.40
2022-10-01T01:29:18.268Z,10.30
2022-10-01T01:31:48.759Z,10.30
2022-10-01T01:34:23.993Z,10.30
2022-10-01T01:36:54.726Z,10.20
2022-10-01T01:39:21.948Z,10.20
2022-10-01T01:41:51.922Z,10.20
2022-10-01T01:44:22.868Z,10.30
2022-10-01T01:46:49.681Z,10.10
2022-10-01T01:49:19.158Z,10.00
2022-10-01T01:52:14.344Z,10.00
2022-10-01T01:54:41.578Z,10.00
2022-10-01T01:57:08.438Z,9.90
2022-10-01T02:01:51.462Z,9.90
2022-10-01T02:06:12.285Z,10.20
2022-10-01T02:08:52.133Z,9.70
2022-10-01T02:11:34.055Z,9.70
2022-10-01T02:14:19.295Z,9.70
2022-10-01T02:16:50.372Z,9.60
2022-10-01T02:19:20.297Z,9.60
2022-10-01T02:21:57.448Z,9.60
2022-10-01T02:24:51.983Z,9.50
2022-10-01T02:27:29.160Z,9.40
2022-10-01T02:29:57.455Z,9.40
2022-10-01T02:32:24.317Z,9.30
2022-10-01T02:34:51.785Z,9.30
2022-10-01T02:37:20.613Z,9.20
2022-10-01T02:39:47.467Z,9.20
2022-10-01T02:42:14.387Z,9.10
2022-10-01T02:44:42.666Z,9.10
2022-10-01T02:47:20.290Z,9.00
2022-10-01T02:49:47.657Z,9.00
2022-10-01T02:52:28.180Z,9.00
2022-10-01T02:55:07.657Z,8.90
2022-10-01T02:57:34.765Z,8.90
2022-10-01T03:00:13.049Z,8.80
2022-10-01T03:02:39.903Z,8.70
2022-10-01T03:05:07.333Z,8.70
2022-10-01T03:07:35.602Z,8.70
2022-10-01T03:10:06.057Z,8.60
2022-10-01T03:12:33.152Z,8.60
2022-10-01T03:15:00.002Z,8.50
2022-10-01T03:17:26.855Z,8.40
2022-10-01T03:19:53.769Z,8.40
2022-10-01T03:22:24.345Z,8.30
2022-10-01T03:24:51.937Z,8.30
2022-10-01T03:27:19.305Z,8.20
2022-10-01T03:29:46.176Z,8.20
2022-10-01T03:32:13.639Z,8.20
2022-10-01T03:34:40.536Z,8.20
2022-10-01T03:37:07.548Z,8.20
2022-10-01T03:39:34.550Z,8.10
2022-10-01T03:42:01.418Z,8.10
2022-10-01T03:44:28.516Z,8.00
2022-10-01T03:46:55.428Z,8.00
2022-10-01T03:49:22.248Z,8.00
2022-10-01T03:51:49.393Z,8.00
2022-10-01T03:55:00.759Z,7.90
2022-10-01T03:57:27.524Z,7.80
2022-10-01T03:59:54.333Z,7.90
2022-10-01T04:02:22.071Z,7.80
2022-10-01T04:04:48.942Z,7.80
2022-10-01T04:07:15.794Z,7.80
2022-10-01T04:09:42.869Z,7.80
2022-10-01T04:16:36.347Z,7.80
2022-10-01T04:19:04.191Z,7.90
2022-10-01T04:24:08.630Z,8.00
2022-10-01T04:28:00.288Z,8.00
2022-10-01T04:30:28.660Z,8.00
2022-10-01T04:32:55.465Z,8.00
2022-10-01T04:35:22.690Z,8.10
2022-10-01T04:44:36.547Z,8.20
2022-10-01T04:48:58.039Z,8.20
2022-10-01T04:51:24.969Z,8.20
2022-10-01T04:54:43.207Z,8.20
2022-10-01T04:58:35.985Z,8.20
2022-10-01T05:03:41.986Z,8.30
2022-10-01T05:06:08.824Z,8.30
2022-10-01T05:08:36.797Z,8.30
2022-10-01T05:11:03.594Z,8.30
2022-10-01T05:13:31.902Z,8.30
2022-10-01T05:15:59.228Z,8.40
2022-10-01T05:18:26.020Z,8.40
2022-10-01T05:20:52.815Z,8.40
2022-10-01T05:23:19.602Z,8.40
2022-10-01T05:25:47.039Z,8.40
2022-10-01T05:28:18.325Z,8.50
2022-10-01T05:30:48.095Z,8.50
2022-10-01T05:33:14.853Z,8.50
2022-10-01T05:35:41.673Z,8.60
2022-10-01T05:57:57.597Z,8.80
2022-10-01T06:07:31.447Z,9.00
2022-10-01T06:09:58.232Z,9.00
2022-10-01T06:13:17.606Z,9.10
2022-10-01T06:17:45.154Z,9.20
2022-10-01T06:21:27.798Z,9.20
2022-10-01T06:23:54.501Z,9.30
2022-10-01T06:26:21.350Z,9.40
2022-10-01T06:44:39.972Z,9.50
2022-10-01T06:58:14.717Z,10.10
2022-10-01T07:00:41.955Z,10.10
2022-10-01T07:03:11.021Z,10.10
2022-10-01T07:07:38.149Z,10.10
2022-10-01T07:12:56.057Z,10.20
2022-10-01T07:17:10.294Z,10.30
2022-10-01T07:20:39.436Z,10.30
2022-10-01T07:27:44.527Z,10.50
2022-10-01T07:30:11.615Z,10.50
2022-10-01T07:32:38.351Z,10.60
2022-10-01T07:35:53.702Z,10.70
2022-10-01T07:38:20.493Z,10.80
2022-10-01T07:41:38.990Z,11.00
2022-10-01T07:44:05.892Z,11.00
2022-10-01T07:46:34.822Z,11.10
2022-10-01T07:52:41.529Z,11.40
2022-10-01T07:55:11.068Z,11.50
2022-10-01T07:57:37.907Z,11.70
2022-10-01T08:00:05.376Z,11.80
2022-10-01T08:02:32.261Z,12.00
2022-10-01T08:05:17.487Z,12.20
2022-10-01T08:07:45.347Z,12.30
2022-10-01T08:10:12.418Z,12.60
2022-10-01T08:15:15.526Z,12.70
2022-10-01T08:17:42.556Z,12.90
2022-10-01T08:20:11.207Z,13.00
2022-10-01T08:22:41.922Z,13.10
2022-10-01T08:25:09.460Z,13.10
2022-10-01T08:27:36.308Z,13.10
2022-10-01T08:30:03.200Z,13.20
2022-10-01T08:32:30.973Z,13.20
